sensor_id;sensor_type;location;lat;lon;timestamp;temperature;humidity
4578;DHT22;2301;47.354;8.528;2023-08-21T00:01:36;27.80;64.90
4578;DHT22;2301;47.354;8.528;2023-08-21T00:04:05;27.80;65.00
4578;DHT22;2301;47.354;8.528;2023-08-21T00:06:32;27.80;65.10
4578;DHT22;2301;47.354;8.528;2023-08-21T00:09:00;27.80;65.20
4578;DHT22;2301;47.354;8.528;2023-08-21T00:11:28;27.70;65.20
4578;DHT22;2301;47.354;8.528;2023-08-21T00:13:54;27.70;65.40
4578;DHT22;2301;47.354;8.528;2023-08-21T00:16:21;27.70;65.50
4578;DHT22;2301;47.354;8.528;2023-08-21T00:18:48;27.70;65.60
4578;DHT22;2301;47.354;8.528;2023-08-21T00:21:17;27.70;65.70
4578;DHT22;2301;47.354;8.528;2023-08-21T00:23:44;27.70;65.70
4578;DHT22;2301;47.354;8.528;2023-08-21T00:26:11;27.60;65.80
4578;DHT22;2301;47.354;8.528;2023-08-21T00:28:38;27.60;65.90
4578;DHT22;2301;47.354;8.528;2023-08-21T00:31:05;27.60;66.10
4578;DHT22;2301;47.354;8.528;2023-08-21T00:33:33;27.60;66.00
4578;DHT22;2301;47.354;8.528;2023-08-21T00:36:00;27.60;66.20
4578;DHT22;2301;47.354;8.528;2023-08-21T00:38:28;27.50;66.30
4578;DHT22;2301;47.354;8.528;2023-08-21T00:40:55;27.50;66.40
4578;DHT22;2301;47.354;8.528;2023-08-21T00:43:23;27.50;66.50
4578;DHT22;2301;47.354;8.528;2023-08-21T00:45:50;27.50;66.60
4578;DHT22;2301;47.354;8.528;2023-08-21T00:48:17;27.50;66.50
4578;DHT22;2301;47.354;8.528;2023-08-21T00:50:45;27.50;66.70
4578;DHT22;2301;47.354;8.528;2023-08-21T00:53:12;27.40;66.60
4578;DHT22;2301;47.354;8.528;2023-08-21T00:55:41;27.40;66.80
4578;DHT22;2301;47.354;8.528;2023-08-21T00:58:10;27.40;66.80
4578;DHT22;2301;47.354;8.528;2023-08-21T01:00:38;27.40;66.70
4578;DHT22;2301;47.354;8.528;2023-08-21T01:03:05;27.40;66.90
4578;DHT22;2301;47.354;8.528;2023-08-21T01:05:34;27.30;67.10
4578;DHT22;2301;47.354;8.528;2023-08-21T01:08:04;27.30;67.20
4578;DHT22;2301;47.354;8.528;2023-08-21T01:10:42;27.30;67.30
4578;DHT22;2301;47.354;8.528;2023-08-21T01:13:19;27.30;67.30
4578;DHT22;2301;47.354;8.528;2023-08-21T01:15:51;27.30;67.50
4578;DHT22;2301;47.354;8.528;2023-08-21T01:18:20;27.20;67.50
4578;DHT22;2301;47.354;8.528;2023-08-21T01:20:48;27.30;67.70
4578;DHT22;2301;47.354;8.528;2023-08-21T01:23:29;27.20;67.60
4578;DHT22;2301;47.354;8.528;2023-08-21T01:25:56;27.20;67.70
4578;DHT22;2301;47.354;8.528;2023-08-21T01:28:23;27.20;67.50
4578;DHT22;2301;47.354;8.528;2023-08-21T01:30:52;27.20;67.60
4578;DHT22;2301;47.354;8.528;2023-08-21T01:33:22;27.20;67.80
4578;DHT22;2301;47.354;8.528;2023-08-21T01:35:52;27.20;67.60
4578;DHT22;2301;47.354;8.528;2023-08-21T01:38:19;27.20;67.60
4578;DHT22;2301;47.354;8.528;2023-08-21T01:40:48;27.20;67.80
4578;DHT22;2301;47.354;8.528;2023-08-21T01:43:15;27.20;68.00
4578;DHT22;2301;47.354;8.528;2023-08-21T01:45:42;27.10;67.90
4578;DHT22;2301;47.354;8.528;2023-08-21T01:48:09;27.10;68.10
4578;DHT22;2301;47.354;8.528;2023-08-21T01:50:36;27.10;68.10
4578;DHT22;2301;47.354;8.528;2023-08-21T01:53:03;27.00;68.00
4578;DHT22;2301;47.354;8.528;2023-08-21T01:55:30;27.00;68.20
4578;DHT22;2301;47.354;8.528;2023-08-21T01:57:59;27.00;68.30
4578;DHT22;2301;47.354;8.528;2023-08-21T02:00:25;27.00;67.90
4578;DHT22;2301;47.354;8.528;2023-08-21T02:02:53;27.00;68.10
4578;DHT22;2301;47.354;8.528;2023-08-21T02:05:19;27.00;68.30
4578;DHT22;2301;47.354;8.528;2023-08-21T02:07:46;27.00;68.50
4578;DHT22;2301;47.354;8.528;2023-08-21T02:10:13;26.90;68.40
4578;DHT22;2301;47.354;8.528;2023-08-21T02:12:40;27.00;68.70
4578;DHT22;2301;47.354;8.528;2023-08-21T02:15:10;26.90;68.30
4578;DHT22;2301;47.354;8.528;2023-08-21T02:17:36;26.90;68.10
4578;DHT22;2301;47.354;8.528;2023-08-21T02:20:04;26.90;68.30
4578;DHT22;2301;47.354;8.528;2023-08-21T02:22:32;26.90;68.30
4578;DHT22;2301;47.354;8.528;2023-08-21T02:24:59;26.90;68.70
4578;DHT22;2301;47.354;8.528;2023-08-21T02:27:26;26.90;68.60
4578;DHT22;2301;47.354;8.528;2023-08-21T02:29:52;26.90;68.90
4578;DHT22;2301;47.354;8.528;2023-08-21T02:32:21;26.90;68.90
4578;DHT22;2301;47.354;8.528;2023-08-21T02:34:48;26.80;69.10
4578;DHT22;2301;47.354;8.528;2023-08-21T02:37:15;26.80;69.20
4578;DHT22;2301;47.354;8.528;2023-08-21T02:39:42;26.80;69.30
4578;DHT22;2301;47.354;8.528;2023-08-21T02:42:09;26.80;69.50
4578;DHT22;2301;47.354;8.528;2023-08-21T02:44:36;26.70;69.40
4578;DHT22;2301;47.354;8.528;2023-08-21T02:47:03;26.70;69.40
4578;DHT22;2301;47.354;8.528;2023-08-21T02:49:31;26.70;69.60
4578;DHT22;2301;47.354;8.528;2023-08-21T02:51:58;26.70;69.60
4578;DHT22;2301;47.354;8.528;2023-08-21T02:54:25;26.70;69.30
4578;DHT22;2301;47.354;8.528;2023-08-21T02:56:52;26.70;69.30
4578;DHT22;2301;47.354;8.528;2023-08-21T02:59:19;26.70;69.60
4578;DHT22;2301;47.354;8.528;2023-08-21T03:01:46;26.70;69.70
4578;DHT22;2301;47.354;8.528;2023-08-21T03:04:13;26.70;69.70
4578;DHT22;2301;47.354;8.528;2023-08-21T03:06:42;26.70;69.60
4578;DHT22;2301;47.354;8.528;2023-08-21T03:09:09;26.70;69.90
4578;DHT22;2301;47.354;8.528;2023-08-21T03:11:36;26.60;70.00
4578;DHT22;2301;47.354;8.528;2023-08-21T03:14:03;26.60;70.00
4578;DHT22;2301;47.354;8.528;2023-08-21T03:16:29;26.60;70.10
4578;DHT22;2301;47.354;8.528;2023-08-21T03:18:58;26.60;70.30
4578;DHT22;2301;47.354;8.528;2023-08-21T03:21:25;26.50;70.40
4578;DHT22;2301;47.354;8.528;2023-08-21T03:23:54;26.50;70.40
4578;DHT22;2301;47.354;8.528;2023-08-21T03:26:22;26.50;70.30
4578;DHT22;2301;47.354;8.528;2023-08-21T03:28:49;26.60;70.40
4578;DHT22;2301;47.354;8.528;2023-08-21T03:31:16;26.50;70.20
4578;DHT22;2301;47.354;8.528;2023-08-21T03:33:44;26.50;70.40
4578;DHT22;2301;47.354;8.528;2023-08-21T03:36:17;26.80;69.50
4578;DHT22;2301;47.354;8.528;2023-08-21T03:38:47;26.50;69.40
4578;DHT22;2301;47.354;8.528;2023-08-21T03:42:02;26.30;70.10
4578;DHT22;2301;47.354;8.528;2023-08-21T03:44:46;26.00;70.70
4578;DHT22;2301;47.354;8.528;2023-08-21T03:47:18;25.80;71.20
4578;DHT22;2301;47.354;8.528;2023-08-21T03:49:48;25.70;71.70
4578;DHT22;2301;47.354;8.528;2023-08-21T03:52:19;25.60;72.30
4578;DHT22;2301;47.354;8.528;2023-08-21T03:54:57;25.50;72.50
4578;DHT22;2301;47.354;8.528;2023-08-21T04:01:34;25.30;73.90
4578;DHT22;2301;47.354;8.528;2023-08-21T04:04:03;25.30;74.30
4578;DHT22;2301;47.354;8.528;2023-08-21T04:07:04;25.20;74.50
4578;DHT22;2301;47.354;8.528;2023-08-21T04:10:16;25.20;74.70
4578;DHT22;2301;47.354;8.528;2023-08-21T04:12:55;25.20;75.10
4578;DHT22;2301;47.354;8.528;2023-08-21T04:15:27;25.10;75.30
4578;DHT22;2301;47.354;8.528;2023-08-21T04:18:11;25.10;75.70
4578;DHT22;2301;47.354;8.528;2023-08-21T04:20:38;25.10;75.90
4578;DHT22;2301;47.354;8.528;2023-08-21T04:23:05;25.10;76.00
4578;DHT22;2301;47.354;8.528;2023-08-21T04:25:32;25.10;76.00
4578;DHT22;2301;47.354;8.528;2023-08-21T04:27:59;25.10;76.20
4578;DHT22;2301;47.354;8.528;2023-08-21T04:30:26;25.00;76.40
4578;DHT22;2301;47.354;8.528;2023-08-21T04:32:53;25.10;76.60
4578;DHT22;2301;47.354;8.528;2023-08-21T04:35:21;25.10;76.60
4578;DHT22;2301;47.354;8.528;2023-08-21T04:37:48;25.00;76.90
4578;DHT22;2301;47.354;8.528;2023-08-21T04:40:15;25.00;76.90
4578;DHT22;2301;47.354;8.528;2023-08-21T04:42:43;25.00;77.20
4578;DHT22;2301;47.354;8.528;2023-08-21T04:45:10;25.00;77.30
4578;DHT22;2301;47.354;8.528;2023-08-21T04:47:37;25.00;77.40
4578;DHT22;2301;47.354;8.528;2023-08-21T04:50:04;25.00;77.60
4578;DHT22;2301;47.354;8.528;2023-08-21T04:52:33;25.00;77.60
4578;DHT22;2301;47.354;8.528;2023-08-21T04:55:00;25.00;78.40
4578;DHT22;2301;47.354;8.528;2023-08-21T04:57:27;25.00;77.80
4578;DHT22;2301;47.354;8.528;2023-08-21T04:59:54;25.00;78.10
4578;DHT22;2301;47.354;8.528;2023-08-21T05:02:21;24.90;78.20
4578;DHT22;2301;47.354;8.528;2023-08-21T05:04:48;25.00;78.40
4578;DHT22;2301;47.354;8.528;2023-08-21T05:07:15;25.00;78.50
4578;DHT22;2301;47.354;8.528;2023-08-21T05:09:43;25.00;78.50
4578;DHT22;2301;47.354;8.528;2023-08-21T05:12:10;25.00;78.60
4578;DHT22;2301;47.354;8.528;2023-08-21T05:14:37;25.10;78.60
4578;DHT22;2301;47.354;8.528;2023-08-21T05:17:04;25.10;78.50
4578;DHT22;2301;47.354;8.528;2023-08-21T05:19:31;25.10;78.50
4578;DHT22;2301;47.354;8.528;2023-08-21T05:21:57;25.20;78.40
4578;DHT22;2301;47.354;8.528;2023-08-21T05:24:26;25.20;78.30
4578;DHT22;2301;47.354;8.528;2023-08-21T05:26:56;25.20;78.30
4578;DHT22;2301;47.354;8.528;2023-08-21T05:29:23;25.20;78.30
4578;DHT22;2301;47.354;8.528;2023-08-21T05:31:50;25.20;78.30
4578;DHT22;2301;47.354;8.528;2023-08-21T05:34:17;25.20;78.10
4578;DHT22;2301;47.354;8.528;2023-08-21T05:36:44;25.30;78.20
4578;DHT22;2301;47.354;8.528;2023-08-21T05:39:11;25.30;78.40
4578;DHT22;2301;47.354;8.528;2023-08-21T05:41:38;25.30;78.40
4578;DHT22;2301;47.354;8.528;2023-08-21T05:44:07;25.30;78.40
4578;DHT22;2301;47.354;8.528;2023-08-21T05:46:34;25.30;78.50
4578;DHT22;2301;47.354;8.528;2023-08-21T05:49:01;25.30;78.50
4578;DHT22;2301;47.354;8.528;2023-08-21T05:51:28;25.30;78.50
4578;DHT22;2301;47.354;8.528;2023-08-21T05:53:55;25.30;78.40
4578;DHT22;2301;47.354;8.528;2023-08-21T05:56:22;25.40;78.50
4578;DHT22;2301;47.354;8.528;2023-08-21T05:58:49;25.50;78.40
4578;DHT22;2301;47.354;8.528;2023-08-21T06:01:17;25.50;78.40
4578;DHT22;2301;47.354;8.528;2023-08-21T06:03:44;25.50;78.60
4578;DHT22;2301;47.354;8.528;2023-08-21T06:06:13;25.60;78.90
4578;DHT22;2301;47.354;8.528;2023-08-21T06:08:40;25.60;79.40
4578;DHT22;2301;47.354;8.528;2023-08-21T06:11:06;25.60;79.40
4578;DHT22;2301;47.354;8.528;2023-08-21T06:13:33;25.80;79.20
4578;DHT22;2301;47.354;8.528;2023-08-21T06:16:00;25.90;78.50
4578;DHT22;2301;47.354;8.528;2023-08-21T06:18:29;26.00;77.90
4578;DHT22;2301;47.354;8.528;2023-08-21T06:20:56;26.10;77.60
4578;DHT22;2301;47.354;8.528;2023-08-21T06:23:23;26.20;77.50
4578;DHT22;2301;47.354;8.528;2023-08-21T06:25:50;26.40;77.30
4578;DHT22;2301;47.354;8.528;2023-08-21T06:28:16;26.40;76.90
4578;DHT22;2301;47.354;8.528;2023-08-21T06:30:44;26.50;76.60
4578;DHT22;2301;47.354;8.528;2023-08-21T06:33:11;26.70;76.60
4578;DHT22;2301;47.354;8.528;2023-08-21T06:35:39;26.70;76.20
4578;DHT22;2301;47.354;8.528;2023-08-21T06:38:06;26.80;75.90
4578;DHT22;2301;47.354;8.528;2023-08-21T06:40:32;26.90;75.60
4578;DHT22;2301;47.354;8.528;2023-08-21T06:42:59;27.00;75.40
4578;DHT22;2301;47.354;8.528;2023-08-21T06:45:26;27.00;75.10
4578;DHT22;2301;47.354;8.528;2023-08-21T06:47:56;27.20;74.90
4578;DHT22;2301;47.354;8.528;2023-08-21T06:50:23;27.30;74.50
4578;DHT22;2301;47.354;8.528;2023-08-21T06:52:51;27.40;74.40
4578;DHT22;2301;47.354;8.528;2023-08-21T06:55:18;27.50;74.20
4578;DHT22;2301;47.354;8.528;2023-08-21T06:57:44;27.50;73.90
4578;DHT22;2301;47.354;8.528;2023-08-21T07:00:12;27.60;73.50
4578;DHT22;2301;47.354;8.528;2023-08-21T07:02:40;27.70;73.20
4578;DHT22;2301;47.354;8.528;2023-08-21T07:05:07;27.80;72.80
4578;DHT22;2301;47.354;8.528;2023-08-21T07:07:34;27.90;72.40
4578;DHT22;2301;47.354;8.528;2023-08-21T07:10:03;28.10;72.20
4578;DHT22;2301;47.354;8.528;2023-08-21T07:12:30;28.20;71.90
4578;DHT22;2301;47.354;8.528;2023-08-21T07:14:57;28.40;71.50
4578;DHT22;2301;47.354;8.528;2023-08-21T07:17:24;28.50;71.00
4578;DHT22;2301;47.354;8.528;2023-08-21T07:19:51;28.70;71.10
4578;DHT22;2301;47.354;8.528;2023-08-21T07:22:19;28.90;70.20
4578;DHT22;2301;47.354;8.528;2023-08-21T07:24:46;29.00;69.20
4578;DHT22;2301;47.354;8.528;2023-08-21T07:27:14;29.20;68.80
4578;DHT22;2301;47.354;8.528;2023-08-21T07:29:41;29.30;67.70
4578;DHT22;2301;47.354;8.528;2023-08-21T07:32:08;29.40;66.70
4578;DHT22;2301;47.354;8.528;2023-08-21T07:34:35;29.50;64.90
4578;DHT22;2301;47.354;8.528;2023-08-21T07:37:02;29.50;65.00
4578;DHT22;2301;47.354;8.528;2023-08-21T07:39:29;29.70;64.70
4578;DHT22;2301;47.354;8.528;2023-08-21T07:41:56;29.80;64.20
4578;DHT22;2301;47.354;8.528;2023-08-21T07:44:24;29.90;63.60
4578;DHT22;2301;47.354;8.528;2023-08-21T07:46:51;30.00;63.70
4578;DHT22;2301;47.354;8.528;2023-08-21T07:49:18;30.20;63.90
4578;DHT22;2301;47.354;8.528;2023-08-21T07:51:45;30.40;63.40
4578;DHT22;2301;47.354;8.528;2023-08-21T07:54:12;30.50;62.80
4578;DHT22;2301;47.354;8.528;2023-08-21T07:56:39;30.60;62.30
4578;DHT22;2301;47.354;8.528;2023-08-21T07:59:06;30.70;62.30
4578;DHT22;2301;47.354;8.528;2023-08-21T08:01:35;30.90;61.60
4578;DHT22;2301;47.354;8.528;2023-08-21T08:04:01;31.20;61.30
4578;DHT22;2301;47.354;8.528;2023-08-21T08:06:29;31.40;60.00
4578;DHT22;2301;47.354;8.528;2023-08-21T08:08:57;31.70;59.50
4578;DHT22;2301;47.354;8.528;2023-08-21T08:11:24;31.90;59.00
4578;DHT22;2301;47.354;8.528;2023-08-21T08:13:51;32.10;58.70
4578;DHT22;2301;47.354;8.528;2023-08-21T08:16:18;32.30;58.10
4578;DHT22;2301;47.354;8.528;2023-08-21T08:18:47;32.50;57.50
4578;DHT22;2301;47.354;8.528;2023-08-21T08:21:14;32.80;57.00
4578;DHT22;2301;47.354;8.528;2023-08-21T08:23:41;33.30;56.10
4578;DHT22;2301;47.354;8.528;2023-08-21T08:26:08;33.80;55.30
4578;DHT22;2301;47.354;8.528;2023-08-21T08:28:35;34.20;54.40
4578;DHT22;2301;47.354;8.528;2023-08-21T08:31:02;34.20;53.70
4578;DHT22;2301;47.354;8.528;2023-08-21T08:33:30;34.30;53.50
4578;DHT22;2301;47.354;8.528;2023-08-21T08:35:58;34.40;53.50
4578;DHT22;2301;47.354;8.528;2023-08-21T08:38:25;34.50;53.30
4578;DHT22;2301;47.354;8.528;2023-08-21T08:40:54;34.60;52.90
4578;DHT22;2301;47.354;8.528;2023-08-21T08:43:24;35.00;52.20
4578;DHT22;2301;47.354;8.528;2023-08-21T08:45:53;35.70;50.90
4578;DHT22;2301;47.354;8.528;2023-08-21T08:48:21;36.40;49.80
4578;DHT22;2301;47.354;8.528;2023-08-21T08:50:50;36.70;48.90
4578;DHT22;2301;47.354;8.528;2023-08-21T08:53:19;36.70;49.10
4578;DHT22;2301;47.354;8.528;2023-08-21T08:55:46;36.60;49.70
4578;DHT22;2301;47.354;8.528;2023-08-21T08:58:15;36.40;48.90
4578;DHT22;2301;47.354;8.528;2023-08-21T09:00:42;36.10;49.10
4578;DHT22;2301;47.354;8.528;2023-08-21T09:03:09;36.00;49.50
4578;DHT22;2301;47.354;8.528;2023-08-21T09:05:39;36.00;49.70
4578;DHT22;2301;47.354;8.528;2023-08-21T09:08:10;36.10;49.70
4578;DHT22;2301;47.354;8.528;2023-08-21T09:10:40;36.30;49.80
4578;DHT22;2301;47.354;8.528;2023-08-21T09:13:14;36.60;49.70
4578;DHT22;2301;47.354;8.528;2023-08-21T09:15:42;37.00;48.90
4578;DHT22;2301;47.354;8.528;2023-08-21T09:18:10;37.40;48.00
4578;DHT22;2301;47.354;8.528;2023-08-21T09:20:37;37.60;47.80
4578;DHT22;2301;47.354;8.528;2023-08-21T09:23:04;37.70;47.60
4578;DHT22;2301;47.354;8.528;2023-08-21T09:25:35;37.80;47.10
4578;DHT22;2301;47.354;8.528;2023-08-21T09:28:06;38.10;46.90
4578;DHT22;2301;47.354;8.528;2023-08-21T09:30:52;38.20;46.30
4578;DHT22;2301;47.354;8.528;2023-08-21T09:33:20;38.20;46.00
4578;DHT22;2301;47.354;8.528;2023-08-21T09:35:48;38.20;46.40
4578;DHT22;2301;47.354;8.528;2023-08-21T09:38:15;38.30;46.30
4578;DHT22;2301;47.354;8.528;2023-08-21T09:40:43;38.40;46.90
4578;DHT22;2301;47.354;8.528;2023-08-21T09:43:18;38.40;46.40
4578;DHT22;2301;47.354;8.528;2023-08-21T09:45:46;38.60;46.30
4578;DHT22;2301;47.354;8.528;2023-08-21T09:48:14;38.60;45.50
4578;DHT22;2301;47.354;8.528;2023-08-21T09:50:41;39.00;45.40
4578;DHT22;2301;47.354;8.528;2023-08-21T09:53:09;39.60;44.40
4578;DHT22;2301;47.354;8.528;2023-08-21T09:55:37;40.20;43.00
4578;DHT22;2301;47.354;8.528;2023-08-21T09:58:06;40.50;42.60
4578;DHT22;2301;47.354;8.528;2023-08-21T10:00:39;40.40;41.70
4578;DHT22;2301;47.354;8.528;2023-08-21T10:03:08;40.10;42.20
4578;DHT22;2301;47.354;8.528;2023-08-21T10:05:38;39.90;43.10
4578;DHT22;2301;47.354;8.528;2023-08-21T10:08:06;39.80;42.90
4578;DHT22;2301;47.354;8.528;2023-08-21T10:10:35;39.80;42.40
4578;DHT22;2301;47.354;8.528;2023-08-21T10:13:03;39.70;41.90
4578;DHT22;2301;47.354;8.528;2023-08-21T10:15:31;39.70;42.40
4578;DHT22;2301;47.354;8.528;2023-08-21T10:18:18;39.70;42.30
4578;DHT22;2301;47.354;8.528;2023-08-21T10:20:45;39.70;41.90
4578;DHT22;2301;47.354;8.528;2023-08-21T10:23:24;40.00;42.20
4578;DHT22;2301;47.354;8.528;2023-08-21T10:25:54;40.50;41.20
4578;DHT22;2301;47.354;8.528;2023-08-21T10:28:22;41.10;40.30
4578;DHT22;2301;47.354;8.528;2023-08-21T10:30:49;41.50;39.40
4578;DHT22;2301;47.354;8.528;2023-08-21T10:33:47;41.40;38.30
4578;DHT22;2301;47.354;8.528;2023-08-21T10:36:14;41.10;39.30
4578;DHT22;2301;47.354;8.528;2023-08-21T10:38:58;41.00;40.40
4578;DHT22;2301;47.354;8.528;2023-08-21T10:41:26;40.80;40.50
4578;DHT22;2301;47.354;8.528;2023-08-21T10:43:53;40.50;40.50
4578;DHT22;2301;47.354;8.528;2023-08-21T10:46:20;40.50;40.50
4578;DHT22;2301;47.354;8.528;2023-08-21T10:48:51;40.30;39.30
4578;DHT22;2301;47.354;8.528;2023-08-21T10:51:18;40.40;39.30
4578;DHT22;2301;47.354;8.528;2023-08-21T10:53:45;40.40;39.50
4578;DHT22;2301;47.354;8.528;2023-08-21T10:56:12;40.60;39.10
4578;DHT22;2301;47.354;8.528;2023-08-21T10:58:41;40.80;39.10
4578;DHT22;2301;47.354;8.528;2023-08-21T11:01:08;41.10;38.50
4578;DHT22;2301;47.354;8.528;2023-08-21T11:03:38;41.30;38.40
4578;DHT22;2301;47.354;8.528;2023-08-21T11:06:09;41.50;38.60
4578;DHT22;2301;47.354;8.528;2023-08-21T11:08:37;41.50;37.60
4578;DHT22;2301;47.354;8.528;2023-08-21T11:11:05;41.40;37.50
4578;DHT22;2301;47.354;8.528;2023-08-21T11:13:33;41.50;38.10
4578;DHT22;2301;47.354;8.528;2023-08-21T11:16:01;41.50;38.10
4578;DHT22;2301;47.354;8.528;2023-08-21T11:18:32;41.50;38.30
4578;DHT22;2301;47.354;8.528;2023-08-21T11:21:11;41.20;37.00
4578;DHT22;2301;47.354;8.528;2023-08-21T11:23:39;41.00;37.40
4578;DHT22;2301;47.354;8.528;2023-08-21T11:26:10;40.80;37.90
4578;DHT22;2301;47.354;8.528;2023-08-21T11:28:38;40.70;38.00
4578;DHT22;2301;47.354;8.528;2023-08-21T11:31:06;40.60;39.00
4578;DHT22;2301;47.354;8.528;2023-08-21T11:33:33;40.60;38.50
4578;DHT22;2301;47.354;8.528;2023-08-21T11:36:00;40.50;38.00
4578;DHT22;2301;47.354;8.528;2023-08-21T11:38:29;40.30;38.10
4578;DHT22;2301;47.354;8.528;2023-08-21T11:40:57;40.10;38.10
4578;DHT22;2301;47.354;8.528;2023-08-21T11:43:35;39.90;39.30
4578;DHT22;2301;47.354;8.528;2023-08-21T11:46:02;39.80;38.90
4578;DHT22;2301;47.354;8.528;2023-08-21T11:48:29;39.90;39.80
4578;DHT22;2301;47.354;8.528;2023-08-21T11:50:56;40.00;39.80
4578;DHT22;2301;47.354;8.528;2023-08-21T11:53:32;40.10;39.60
4578;DHT22;2301;47.354;8.528;2023-08-21T11:55:59;40.10;39.00
4578;DHT22;2301;47.354;8.528;2023-08-21T11:58:26;39.90;38.50
4578;DHT22;2301;47.354;8.528;2023-08-21T12:00:54;39.70;38.20
4578;DHT22;2301;47.354;8.528;2023-08-21T12:03:20;39.70;38.60
4578;DHT22;2301;47.354;8.528;2023-08-21T12:05:47;39.60;39.00
4578;DHT22;2301;47.354;8.528;2023-08-21T12:08:14;39.70;39.70
4578;DHT22;2301;47.354;8.528;2023-08-21T12:10:43;39.60;38.70
4578;DHT22;2301;47.354;8.528;2023-08-21T12:13:12;39.70;38.60
4578;DHT22;2301;47.354;8.528;2023-08-21T12:15:39;39.80;38.70
4578;DHT22;2301;47.354;8.528;2023-08-21T12:18:06;39.80;38.20
4578;DHT22;2301;47.354;8.528;2023-08-21T12:20:33;39.60;38.30
4578;DHT22;2301;47.354;8.528;2023-08-21T12:22:59;39.60;38.20
4578;DHT22;2301;47.354;8.528;2023-08-21T12:25:26;39.50;38.40
4578;DHT22;2301;47.354;8.528;2023-08-21T12:27:55;39.40;38.80
4578;DHT22;2301;47.354;8.528;2023-08-21T12:30:21;39.40;38.90
4578;DHT22;2301;47.354;8.528;2023-08-21T12:32:48;39.40;39.50
4578;DHT22;2301;47.354;8.528;2023-08-21T12:35:15;39.40;39.80
4578;DHT22;2301;47.354;8.528;2023-08-21T12:37:43;39.40;38.80
4578;DHT22;2301;47.354;8.528;2023-08-21T12:40:10;39.40;39.10
4578;DHT22;2301;47.354;8.528;2023-08-21T12:42:37;39.50;39.60
4578;DHT22;2301;47.354;8.528;2023-08-21T12:45:07;39.50;39.30
4578;DHT22;2301;47.354;8.528;2023-08-21T12:47:34;39.60;39.30
4578;DHT22;2301;47.354;8.528;2023-08-21T12:50:01;39.50;38.50
4578;DHT22;2301;47.354;8.528;2023-08-21T12:52:29;39.60;39.00
4578;DHT22;2301;47.354;8.528;2023-08-21T12:54:55;39.60;38.50
4578;DHT22;2301;47.354;8.528;2023-08-21T12:57:23;39.70;39.00
4578;DHT22;2301;47.354;8.528;2023-08-21T12:59:49;39.60;37.80
4578;DHT22;2301;47.354;8.528;2023-08-21T13:02:18;39.60;38.40
4578;DHT22;2301;47.354;8.528;2023-08-21T13:04:45;39.50;38.70
4578;DHT22;2301;47.354;8.528;2023-08-21T13:07:12;39.40;38.30
4578;DHT22;2301;47.354;8.528;2023-08-21T13:09:39;39.40;38.50
4578;DHT22;2301;47.354;8.528;2023-08-21T13:12:06;39.40;39.10
4578;DHT22;2301;47.354;8.528;2023-08-21T13:14:33;39.40;38.50
4578;DHT22;2301;47.354;8.528;2023-08-21T13:17:00;39.30;39.00
4578;DHT22;2301;47.354;8.528;2023-08-21T13:19:29;39.30;38.00
4578;DHT22;2301;47.354;8.528;2023-08-21T13:21:56;39.30;37.80
4578;DHT22;2301;47.354;8.528;2023-08-21T13:24:23;39.30;37.80
4578;DHT22;2301;47.354;8.528;2023-08-21T13:26:51;39.30;37.60
4578;DHT22;2301;47.354;8.528;2023-08-21T13:29:21;39.30;37.80
4578;DHT22;2301;47.354;8.528;2023-08-21T13:31:49;39.30;37.10
4578;DHT22;2301;47.354;8.528;2023-08-21T13:34:17;39.30;36.80
4578;DHT22;2301;47.354;8.528;2023-08-21T13:36:45;39.30;36.20
4578;DHT22;2301;47.354;8.528;2023-08-21T13:39:12;39.40;35.70
4578;DHT22;2301;47.354;8.528;2023-08-21T13:41:41;39.40;35.80
4578;DHT22;2301;47.354;8.528;2023-08-21T13:44:07;39.40;35.80
4578;DHT22;2301;47.354;8.528;2023-08-21T13:46:34;39.40;34.00
4578;DHT22;2301;47.354;8.528;2023-08-21T13:49:01;39.30;33.70
4578;DHT22;2301;47.354;8.528;2023-08-21T13:51:29;39.30;34.60
4578;DHT22;2301;47.354;8.528;2023-08-21T13:53:57;39.20;35.10
4578;DHT22;2301;47.354;8.528;2023-08-21T13:56:24;39.20;36.10
4578;DHT22;2301;47.354;8.528;2023-08-21T13:58:51;39.20;35.80
4578;DHT22;2301;47.354;8.528;2023-08-21T14:01:18;39.20;36.90
4578;DHT22;2301;47.354;8.528;2023-08-21T14:03:45;39.20;37.50
4578;DHT22;2301;47.354;8.528;2023-08-21T14:06:12;39.10;36.50
4578;DHT22;2301;47.354;8.528;2023-08-21T14:08:39;38.90;36.50
4578;DHT22;2301;47.354;8.528;2023-08-21T14:11:07;38.90;37.50
4578;DHT22;2301;47.354;8.528;2023-08-21T14:13:34;38.90;37.50
4578;DHT22;2301;47.354;8.528;2023-08-21T14:16:01;38.90;37.70
4578;DHT22;2301;47.354;8.528;2023-08-21T14:18:28;39.00;38.40
4578;DHT22;2301;47.354;8.528;2023-08-21T14:20:55;39.00;38.60
4578;DHT22;2301;47.354;8.528;2023-08-21T14:23:22;38.90;38.80
4578;DHT22;2301;47.354;8.528;2023-08-21T14:25:49;39.00;38.50
4578;DHT22;2301;47.354;8.528;2023-08-21T14:28:19;38.90;37.70
4578;DHT22;2301;47.354;8.528;2023-08-21T14:30:45;38.90;38.50
4578;DHT22;2301;47.354;8.528;2023-08-21T14:33:13;38.80;38.00
4578;DHT22;2301;47.354;8.528;2023-08-21T14:35:40;38.60;37.70
4578;DHT22;2301;47.354;8.528;2023-08-21T14:38:07;38.50;38.20
4578;DHT22;2301;47.354;8.528;2023-08-21T14:40:34;38.50;38.70
4578;DHT22;2301;47.354;8.528;2023-08-21T14:43:00;38.30;38.40
4578;DHT22;2301;47.354;8.528;2023-08-21T14:45:29;38.30;39.10
4578;DHT22;2301;47.354;8.528;2023-08-21T14:47:56;38.40;39.20
4578;DHT22;2301;47.354;8.528;2023-08-21T14:50:23;38.40;39.80
4578;DHT22;2301;47.354;8.528;2023-08-21T14:52:50;38.50;39.60
4578;DHT22;2301;47.354;8.528;2023-08-21T14:55:17;38.50;40.10
4578;DHT22;2301;47.354;8.528;2023-08-21T14:57:44;38.50;39.40
4578;DHT22;2301;47.354;8.528;2023-08-21T15:00:12;38.60;39.90
4578;DHT22;2301;47.354;8.528;2023-08-21T15:02:43;38.60;39.40
4578;DHT22;2301;47.354;8.528;2023-08-21T15:05:10;38.50;38.80
4578;DHT22;2301;47.354;8.528;2023-08-21T15:07:40;38.40;38.80
4578;DHT22;2301;47.354;8.528;2023-08-21T15:10:07;38.40;39.60
4578;DHT22;2301;47.354;8.528;2023-08-21T15:12:35;38.40;39.00
4578;DHT22;2301;47.354;8.528;2023-08-21T15:15:02;38.30;37.00
4578;DHT22;2301;47.354;8.528;2023-08-21T15:17:29;38.30;36.30
4578;DHT22;2301;47.354;8.528;2023-08-21T15:19:58;38.30;35.70
4578;DHT22;2301;47.354;8.528;2023-08-21T15:22:25;38.30;35.80
4578;DHT22;2301;47.354;8.528;2023-08-21T15:24:51;38.30;36.20
4578;DHT22;2301;47.354;8.528;2023-08-21T15:27:19;38.30;35.90
4578;DHT22;2301;47.354;8.528;2023-08-21T15:29:46;38.20;35.50
4578;DHT22;2301;47.354;8.528;2023-08-21T15:32:13;38.20;35.50
4578;DHT22;2301;47.354;8.528;2023-08-21T15:34:41;38.20;36.00
4578;DHT22;2301;47.354;8.528;2023-08-21T15:37:09;38.20;36.20
4578;DHT22;2301;47.354;8.528;2023-08-21T15:39:36;38.10;36.30
4578;DHT22;2301;47.354;8.528;2023-08-21T15:42:03;38.10;35.00
4578;DHT22;2301;47.354;8.528;2023-08-21T15:44:30;38.00;35.10
4578;DHT22;2301;47.354;8.528;2023-08-21T15:46:57;38.00;35.60
4578;DHT22;2301;47.354;8.528;2023-08-21T15:49:24;37.90;35.40
4578;DHT22;2301;47.354;8.528;2023-08-21T15:51:51;37.90;34.70
4578;DHT22;2301;47.354;8.528;2023-08-21T15:54:19;37.80;35.00
4578;DHT22;2301;47.354;8.528;2023-08-21T15:56:46;37.80;35.00
4578;DHT22;2301;47.354;8.528;2023-08-21T15:59:13;37.70;35.70
4578;DHT22;2301;47.354;8.528;2023-08-21T16:01:40;37.70;35.60
4578;DHT22;2301;47.354;8.528;2023-08-21T16:04:07;37.70;36.50
4578;DHT22;2301;47.354;8.528;2023-08-21T16:06:34;37.70;36.10
4578;DHT22;2301;47.354;8.528;2023-08-21T16:09:01;37.60;36.40
4578;DHT22;2301;47.354;8.528;2023-08-21T16:11:29;37.60;36.40
4578;DHT22;2301;47.354;8.528;2023-08-21T16:13:57;37.60;37.00